Terminal Aerodrome Forecast
Issued by NWS Corpus Christi, TX

Home | Current Version | Previous Version | Text Only | Print | Product List | Glossary On
Versions: 1 2 3 4 5 6 7 8 9 10 11 12 13 14 15 16 17 18 19 20
000
FTUS44 KCRP 272332
TAFVCT
TAF
KVCT 272332Z 2800/2824 11007KT P6SM BKN250
     FM280400 VRB03KT P6SM FEW250
      TEMPO 2810/2814 5SM BR
     FM281800 12005KT P6SM SCT050=

USA.gov is the U.S. government's official web portal to all federal, state and local government web resources and services.